Aviation Digital Data Service (ADDS)

Output produced by METARs form (1715 UTC 24 June 2019)
found at http://www.aviationweather.gov/metar/data/
 
METAR text: NZCH 241700Z AUTO 28002KT 9999 NCD 02/02 Q1027 TEMPO 5000 BR
Conditions at: NZCH (CHRISTCHURCH INT, NZ) observed 1700 UTC 24 June 2019
Temperature: 2.0°C (36°F)
Dewpoint: 2.0°C (36°F) [RH = 100%]
Pressure (altimeter): 30.32 inches Hg (1027.0 mb)
Winds: from the W (280 degrees) at 2 MPH (2 knots; 1.0 m/s)
Visibility: 6 or more miles (10+ km)
Ceiling: at least 12,000 feet AGL
Clouds: sky clear below 12,000 feet AGL
Weather: no significant weather observed at this time

METAR text: NZCH 241630Z AUTO 30004KT 9999 NCD 04/03 Q1027 TEMPO 5000 BR
Conditions at: NZCH (CHRISTCHURCH INT, NZ) observed 1630 UTC 24 June 2019
Temperature: 4.0°C (39°F)
Dewpoint: 3.0°C (37°F) [RH = 93%]
Pressure (altimeter): 30.32 inches Hg (1027.0 mb)
Winds: from the WNW (300 degrees) at 5 MPH (4 knots; 2.1 m/s)
Visibility: 6 or more miles (10+ km)
Ceiling: at least 12,000 feet AGL
Clouds: sky clear below 12,000 feet AGL
Weather: no significant weather observed at this time

METAR text: NZCH 241600Z AUTO 30005KT 9999 FEW006/// 05/04 Q1027 NOSIG
Conditions at: NZCH (CHRISTCHURCH INT, NZ) observed 1600 UTC 24 June 2019
Temperature: 5.0°C (41°F)
Dewpoint: 4.0°C (39°F) [RH = 93%]
Pressure (altimeter): 30.32 inches Hg (1027.0 mb)
Winds: from the WNW (300 degrees) at 6 MPH (5 knots; 2.6 m/s)
Visibility: 6 or more miles (10+ km)
Ceiling: at least 12,000 feet AGL
Clouds: few clouds at 600 feet AGL
Weather: no significant weather observed at this time

METAR text: NZCH 241530Z AUTO 29005KT 9999 FEW010 05/05 Q1027 NOSIG
Conditions at: NZCH (CHRISTCHURCH INT, NZ) observed 1530 UTC 24 June 2019
Temperature: 5.0°C (41°F)
Dewpoint: 5.0°C (41°F) [RH = 100%]
Pressure (altimeter): 30.32 inches Hg (1027.0 mb)
Winds: from the WNW (290 degrees) at 6 MPH (5 knots; 2.6 m/s)
Visibility: 6 or more miles (10+ km)
Ceiling: at least 12,000 feet AGL
Clouds: few clouds at 1000 feet AGL
Weather: no significant weather observed at this time

METAR text: NZCH 241500Z AUTO 30005KT 9999 SCT010 04/03 Q1027
Conditions at: NZCH (CHRISTCHURCH INT, NZ) observed 1500 UTC 24 June 2019
Temperature: 4.0°C (39°F)
Dewpoint: 3.0°C (37°F) [RH = 93%]
Pressure (altimeter): 30.32 inches Hg (1027.0 mb)
Winds: from the WNW (300 degrees) at 6 MPH (5 knots; 2.6 m/s)
Visibility: 6 or more miles (10+ km)
Ceiling: at least 12,000 feet AGL
Clouds: scattered clouds at 1000 feet AGL
Weather: no significant weather observed at this time

METAR text: NZCH 241430Z AUTO 26004KT 220V310 9999 FEW010/// 04/03 Q1027 TEMPO BKN011
Conditions at: NZCH (CHRISTCHURCH INT, NZ) observed 1430 UTC 24 June 2019
Temperature: 4.0°C (39°F)
Dewpoint: 3.0°C (37°F) [RH = 93%]
Pressure (altimeter): 30.32 inches Hg (1027.0 mb)
Winds: from the W (260 degrees) at 5 MPH (4 knots; 2.1 m/s)
Visibility: 6 or more miles (10+ km)
Ceiling: at least 12,000 feet AGL
Clouds: few clouds at 1000 feet AGL
Weather: no significant weather observed at this time

METAR text: NZCH 241400Z AUTO 30005KT 9999 SCT007/// 06/04 Q1027 TEMPO TL1500 BKN011
Conditions at: NZCH (CHRISTCHURCH INT, NZ) observed 1400 UTC 24 June 2019
Temperature: 6.0°C (43°F)
Dewpoint: 4.0°C (39°F) [RH = 87%]
Pressure (altimeter): 30.32 inches Hg (1027.0 mb)
Winds: from the WNW (300 degrees) at 6 MPH (5 knots; 2.6 m/s)
Visibility: 6 or more miles (10+ km)
Ceiling: at least 12,000 feet AGL
Clouds: scattered clouds at 700 feet AGL
Weather: no significant weather observed at this time

METAR text: NZCH 241330Z AUTO 29003KT 9999 SCT007/// BKN013/// 06/03 Q1027 BECMG SCT011
Conditions at: NZCH (CHRISTCHURCH INT, NZ) observed 1330 UTC 24 June 2019
Temperature: 6.0°C (43°F)
Dewpoint: 3.0°C (37°F) [RH = 81%]
Pressure (altimeter): 30.32 inches Hg (1027.0 mb)
Winds: from the WNW (290 degrees) at 3 MPH (3 knots; 1.5 m/s)
Visibility: 6 or more miles (10+ km)
Ceiling: 1300 feet AGL
Clouds: scattered clouds at 700 feet AGL
broken clouds at 1300 feet AGL
Weather: no significant weather observed at this time

METAR text: NZCH 241300Z AUTO 27004KT 9999 BKN009 06/04 Q1027 BECMG SCT011
Conditions at: NZCH (CHRISTCHURCH INT, NZ) observed 1300 UTC 24 June 2019
Temperature: 6.0°C (43°F)
Dewpoint: 4.0°C (39°F) [RH = 87%]
Pressure (altimeter): 30.32 inches Hg (1027.0 mb)
Winds: from the W (270 degrees) at 5 MPH (4 knots; 2.1 m/s)
Visibility: 6 or more miles (10+ km)
Ceiling: 900 feet AGL
Clouds: broken clouds at 900 feet AGL
Weather: no significant weather observed at this time

METAR text: NZCH 241230Z AUTO 24002KT 9999 BKN011/// 06/04 Q1027 BECMG SCT011
Conditions at: NZCH (CHRISTCHURCH INT, NZ) observed 1230 UTC 24 June 2019
Temperature: 6.0°C (43°F)
Dewpoint: 4.0°C (39°F) [RH = 87%]
Pressure (altimeter): 30.32 inches Hg (1027.0 mb)
Winds: from the WSW (240 degrees) at 2 MPH (2 knots; 1.0 m/s)
Visibility: 6 or more miles (10+ km)
Ceiling: 1100 feet AGL
Clouds: broken clouds at 1100 feet AGL
Weather: no significant weather observed at this time

METAR text: NZCH 241200Z AUTO 26003KT 9999 SCT010/// BKN050/// 06/03 Q1027
Conditions at: NZCH (CHRISTCHURCH INT, NZ) observed 1200 UTC 24 June 2019
Temperature: 6.0°C (43°F)
Dewpoint: 3.0°C (37°F) [RH = 81%]
Pressure (altimeter): 30.32 inches Hg (1027.0 mb)
Winds: from the W (260 degrees) at 3 MPH (3 knots; 1.5 m/s)
Visibility: 6 or more miles (10+ km)
Ceiling: 5000 feet AGL
Clouds: scattered clouds at 1000 feet AGL
broken clouds at 5000 feet AGL
Weather: no significant weather observed at this time

METAR text: NZCH 241130Z AUTO 27003KT 9999 VCSH SCT009/// SCT015/// BKN050/// 06/03 Q1026 NOSIG
Conditions at: NZCH (CHRISTCHURCH INT, NZ) observed 1130 UTC 24 June 2019
Temperature: 6.0°C (43°F)
Dewpoint: 3.0°C (37°F) [RH = 81%]
Pressure (altimeter): 30.30 inches Hg (1026.0 mb)
Winds: from the W (270 degrees) at 3 MPH (3 knots; 1.5 m/s)
Visibility: 6 or more miles (10+ km)
Ceiling: 5000 feet AGL
Clouds: scattered clouds at 900 feet AGL
scattered clouds at 1500 feet AGL
broken clouds at 5000 feet AGL
Weather: VCSH  (showers in vicinity)

METAR text: NZCH 241100Z AUTO 00000KT 9999 SCT014/// BKN055/// 04/02 Q1026 NOSIG
Conditions at: NZCH (CHRISTCHURCH INT, NZ) observed 1100 UTC 24 June 2019
Temperature: 4.0°C (39°F)
Dewpoint: 2.0°C (36°F) [RH = 87%]
Pressure (altimeter): 30.30 inches Hg (1026.0 mb)
Winds: calm
Visibility: 6 or more miles (10+ km)
Ceiling: 5500 feet AGL
Clouds: scattered clouds at 1400 feet AGL
broken clouds at 5500 feet AGL
Weather: no significant weather observed at this time

METAR text: NZCH 241030Z AUTO 29001KT 9999 FEW043/// SCT055/// 04/01 Q1026 NOSIG
Conditions at: NZCH (CHRISTCHURCH INT, NZ) observed 1030 UTC 24 June 2019
Temperature: 4.0°C (39°F)
Dewpoint: 1.0°C (34°F) [RH = 81%]
Pressure (altimeter): 30.30 inches Hg (1026.0 mb)
Winds: from the WNW (290 degrees) at 1 MPH (1 knots; 0.5 m/s)
Visibility: 6 or more miles (10+ km)
Ceiling: at least 12,000 feet AGL
Clouds: few clouds at 4300 feet AGL
scattered clouds at 5500 feet AGL
Weather: no significant weather observed at this time

METAR text: NZCH 241000Z AUTO 13003KT 9999 OVC055/// 05/02 Q1025 NOSIG
Conditions at: NZCH (CHRISTCHURCH INT, NZ) observed 1000 UTC 24 June 2019
Temperature: 5.0°C (41°F)
Dewpoint: 2.0°C (36°F) [RH = 81%]
Pressure (altimeter): 30.27 inches Hg (1025.0 mb)
Winds: from the SE (130 degrees) at 3 MPH (3 knots; 1.5 m/s)
Visibility: 6 or more miles (10+ km)
Ceiling: 5500 feet AGL
Clouds: overcast cloud deck at 5500 feet AGL
Weather: no significant weather observed at this time

METAR text: NZCH 240930Z AUTO 28005KT 9999 BKN060/// 05/02 Q1025 NOSIG
Conditions at: NZCH (CHRISTCHURCH INT, NZ) observed 0930 UTC 24 June 2019
Temperature: 5.0°C (41°F)
Dewpoint: 2.0°C (36°F) [RH = 81%]
Pressure (altimeter): 30.27 inches Hg (1025.0 mb)
Winds: from the W (280 degrees) at 6 MPH (5 knots; 2.6 m/s)
Visibility: 6 or more miles (10+ km)
Ceiling: 6000 feet AGL
Clouds: broken clouds at 6000 feet AGL
Weather: no significant weather observed at this time

METAR text: NZCH 240900Z AUTO 26006KT 9999 BKN055/// 05/02 Q1024 NOSIG
Conditions at: NZCH (CHRISTCHURCH INT, NZ) observed 0900 UTC 24 June 2019
Temperature: 5.0°C (41°F)
Dewpoint: 2.0°C (36°F) [RH = 81%]
Pressure (altimeter): 30.24 inches Hg (1024.0 mb)
Winds: from the W (260 degrees) at 7 MPH (6 knots; 3.1 m/s)
Visibility: 6 or more miles (10+ km)
Ceiling: 5500 feet AGL
Clouds: broken clouds at 5500 feet AGL
Weather: no significant weather observed at this time

METAR text: NZCH 240830Z AUTO 28006KT 9999 NCD 05/02 Q1024 NOSIG
Conditions at: NZCH (CHRISTCHURCH INT, NZ) observed 0830 UTC 24 June 2019
Temperature: 5.0°C (41°F)
Dewpoint: 2.0°C (36°F) [RH = 81%]
Pressure (altimeter): 30.24 inches Hg (1024.0 mb)
Winds: from the W (280 degrees) at 7 MPH (6 knots; 3.1 m/s)
Visibility: 6 or more miles (10+ km)
Ceiling: at least 12,000 feet AGL
Clouds: sky clear below 12,000 feet AGL
Weather: no significant weather observed at this time

METAR text: NZCH 240800Z AUTO 27006KT 9999 FEW060/// 06/02 Q1023 NOSIG
Conditions at: NZCH (CHRISTCHURCH INT, NZ) observed 0800 UTC 24 June 2019
Temperature: 6.0°C (43°F)
Dewpoint: 2.0°C (36°F) [RH = 75%]
Pressure (altimeter): 30.21 inches Hg (1023.0 mb)
Winds: from the W (270 degrees) at 7 MPH (6 knots; 3.1 m/s)
Visibility: 6 or more miles (10+ km)
Ceiling: at least 12,000 feet AGL
Clouds: few clouds at 6000 feet AGL
Weather: no significant weather observed at this time

METAR text: NZCH 240730Z AUTO 28006KT 9999 FEW060/// 07/02 Q1023 NOSIG
Conditions at: NZCH (CHRISTCHURCH INT, NZ) observed 0730 UTC 24 June 2019
Temperature: 7.0°C (45°F)
Dewpoint: 2.0°C (36°F) [RH = 70%]
Pressure (altimeter): 30.21 inches Hg (1023.0 mb)
Winds: from the W (280 degrees) at 7 MPH (6 knots; 3.1 m/s)
Visibility: 6 or more miles (10+ km)
Ceiling: at least 12,000 feet AGL
Clouds: few clouds at 6000 feet AGL
Weather: no significant weather observed at this time

METAR text: NZCH 240700Z AUTO 27005KT 9999 SCT060/// 07/02 Q1022 NOSIG
Conditions at: NZCH (CHRISTCHURCH INT, NZ) observed 0700 UTC 24 June 2019
Temperature: 7.0°C (45°F)
Dewpoint: 2.0°C (36°F) [RH = 70%]
Pressure (altimeter): 30.18 inches Hg (1022.0 mb)
Winds: from the W (270 degrees) at 6 MPH (5 knots; 2.6 m/s)
Visibility: 6 or more miles (10+ km)
Ceiling: at least 12,000 feet AGL
Clouds: scattered clouds at 6000 feet AGL
Weather: no significant weather observed at this time

METAR text: NZCH 240630Z AUTO 29004KT 9999 NCD 06/02 Q1022 NOSIG
Conditions at: NZCH (CHRISTCHURCH INT, NZ) observed 0630 UTC 24 June 2019
Temperature: 6.0°C (43°F)
Dewpoint: 2.0°C (36°F) [RH = 75%]
Pressure (altimeter): 30.18 inches Hg (1022.0 mb)
Winds: from the WNW (290 degrees) at 5 MPH (4 knots; 2.1 m/s)
Visibility: 6 or more miles (10+ km)
Ceiling: at least 12,000 feet AGL
Clouds: sky clear below 12,000 feet AGL
Weather: no significant weather observed at this time

METAR text: NZCH 240600Z AUTO 26003KT 9999 NCD 07/03 Q1021 NOSIG
Conditions at: NZCH (CHRISTCHURCH INT, NZ) observed 0600 UTC 24 June 2019
Temperature: 7.0°C (45°F)
Dewpoint: 3.0°C (37°F) [RH = 76%]
Pressure (altimeter): 30.15 inches Hg (1021.0 mb)
Winds: from the W (260 degrees) at 3 MPH (3 knots; 1.5 m/s)
Visibility: 6 or more miles (10+ km)
Ceiling: at least 12,000 feet AGL
Clouds: sky clear below 12,000 feet AGL
Weather: no significant weather observed at this time

METAR text: NZCH 240530Z AUTO 23003KT 9999 NCD 07/02 Q1021 NOSIG
Conditions at: NZCH (CHRISTCHURCH INT, NZ) observed 0530 UTC 24 June 2019
Temperature: 7.0°C (45°F)
Dewpoint: 2.0°C (36°F) [RH = 70%]
Pressure (altimeter): 30.15 inches Hg (1021.0 mb)
Winds: from the SW (230 degrees) at 3 MPH (3 knots; 1.5 m/s)
Visibility: 6 or more miles (10+ km)
Ceiling: at least 12,000 feet AGL
Clouds: sky clear below 12,000 feet AGL
Weather: no significant weather observed at this time

METAR text: NZCH 240500Z AUTO 24004KT 9999 NCD 10/03 Q1020 NOSIG
Conditions at: NZCH (CHRISTCHURCH INT, NZ) observed 0500 UTC 24 June 2019
Temperature: 10.0°C (50°F)
Dewpoint: 3.0°C (37°F) [RH = 62%]
Pressure (altimeter): 30.12 inches Hg (1020.0 mb)
Winds: from the WSW (240 degrees) at 5 MPH (4 knots; 2.1 m/s)
Visibility: 6 or more miles (10+ km)
Ceiling: at least 12,000 feet AGL
Clouds: sky clear below 12,000 feet AGL
Weather: no significant weather observed at this time

METAR text: NZCH 240430Z AUTO 25003KT 9999 NCD 11/03 Q1020 NOSIG
Conditions at: NZCH (CHRISTCHURCH INT, NZ) observed 0430 UTC 24 June 2019
Temperature: 11.0°C (52°F)
Dewpoint: 3.0°C (37°F) [RH = 58%]
Pressure (altimeter): 30.12 inches Hg (1020.0 mb)
Winds: from the WSW (250 degrees) at 3 MPH (3 knots; 1.5 m/s)
Visibility: 6 or more miles (10+ km)
Ceiling: at least 12,000 feet AGL
Clouds: sky clear below 12,000 feet AGL
Weather: no significant weather observed at this time

METAR text: NZCH 240400Z AUTO 22006KT 9999 NCD 11/03 Q1019 NOSIG
Conditions at: NZCH (CHRISTCHURCH INT, NZ) observed 0400 UTC 24 June 2019
Temperature: 11.0°C (52°F)
Dewpoint: 3.0°C (37°F) [RH = 58%]
Pressure (altimeter): 30.09 inches Hg (1019.0 mb)
Winds: from the SW (220 degrees) at 7 MPH (6 knots; 3.1 m/s)
Visibility: 6 or more miles (10+ km)
Ceiling: at least 12,000 feet AGL
Clouds: sky clear below 12,000 feet AGL
Weather: no significant weather observed at this time

METAR text: NZCH 240330Z AUTO 23005KT 200V260 9999 NCD 12/03 Q1019 NOSIG
Conditions at: NZCH (CHRISTCHURCH INT, NZ) observed 0330 UTC 24 June 2019
Temperature: 12.0°C (54°F)
Dewpoint: 3.0°C (37°F) [RH = 54%]
Pressure (altimeter): 30.09 inches Hg (1019.0 mb)
Winds: from the SW (230 degrees) at 6 MPH (5 knots; 2.6 m/s)
Visibility: 6 or more miles (10+ km)
Ceiling: at least 12,000 feet AGL
Clouds: sky clear below 12,000 feet AGL
Weather: no significant weather observed at this time

METAR text: NZCH 240300Z AUTO 25008KT 9999 NCD 12/02 Q1018 NOSIG
Conditions at: NZCH (CHRISTCHURCH INT, NZ) observed 0300 UTC 24 June 2019
Temperature: 12.0°C (54°F)
Dewpoint: 2.0°C (36°F) [RH = 50%]
Pressure (altimeter): 30.06 inches Hg (1018.0 mb)
Winds: from the WSW (250 degrees) at 9 MPH (8 knots; 4.1 m/s)
Visibility: 6 or more miles (10+ km)
Ceiling: at least 12,000 feet AGL
Clouds: sky clear below 12,000 feet AGL
Weather: no significant weather observed at this time

METAR text: NZCH 240230Z AUTO 23009KT 200V270 9999 NCD 12/03 Q1018 NOSIG
Conditions at: NZCH (CHRISTCHURCH INT, NZ) observed 0230 UTC 24 June 2019
Temperature: 12.0°C (54°F)
Dewpoint: 3.0°C (37°F) [RH = 54%]
Pressure (altimeter): 30.06 inches Hg (1018.0 mb)
Winds: from the SW (230 degrees) at 10 MPH (9 knots; 4.6 m/s)
Visibility: 6 or more miles (10+ km)
Ceiling: at least 12,000 feet AGL
Clouds: sky clear below 12,000 feet AGL
Weather: no significant weather observed at this time

METAR text: NZCH 240200Z AUTO 23007KT 190V280 9999 NCD 12/03 Q1018 NOSIG
Conditions at: NZCH (CHRISTCHURCH INT, NZ) observed 0200 UTC 24 June 2019
Temperature: 12.0°C (54°F)
Dewpoint: 3.0°C (37°F) [RH = 54%]
Pressure (altimeter): 30.06 inches Hg (1018.0 mb)
Winds: from the SW (230 degrees) at 8 MPH (7 knots; 3.6 m/s)
Visibility: 6 or more miles (10+ km)
Ceiling: at least 12,000 feet AGL
Clouds: sky clear below 12,000 feet AGL
Weather: no significant weather observed at this time

METAR text: NZCH 240130Z AUTO 23008KT 9999 NCD 12/03 Q1018 NOSIG
Conditions at: NZCH (CHRISTCHURCH INT, NZ) observed 0130 UTC 24 June 2019
Temperature: 12.0°C (54°F)
Dewpoint: 3.0°C (37°F) [RH = 54%]
Pressure (altimeter): 30.06 inches Hg (1018.0 mb)
Winds: from the SW (230 degrees) at 9 MPH (8 knots; 4.1 m/s)
Visibility: 6 or more miles (10+ km)
Ceiling: at least 12,000 feet AGL
Clouds: sky clear below 12,000 feet AGL
Weather: no significant weather observed at this time

METAR text: NZCH 240100Z AUTO 24007KT 200V280 9999 NCD 12/03 Q1018 NOSIG
Conditions at: NZCH (CHRISTCHURCH INT, NZ) observed 0100 UTC 24 June 2019
Temperature: 12.0°C (54°F)
Dewpoint: 3.0°C (37°F) [RH = 54%]
Pressure (altimeter): 30.06 inches Hg (1018.0 mb)
Winds: from the WSW (240 degrees) at 8 MPH (7 knots; 3.6 m/s)
Visibility: 6 or more miles (10+ km)
Ceiling: at least 12,000 feet AGL
Clouds: sky clear below 12,000 feet AGL
Weather: no significant weather observed at this time

METAR text: NZCH 240030Z AUTO 26007KT 9999 BKN048/// 11/03 Q1018 NOSIG
Conditions at: NZCH (CHRISTCHURCH INT, NZ) observed 0030 UTC 24 June 2019
Temperature: 11.0°C (52°F)
Dewpoint: 3.0°C (37°F) [RH = 58%]
Pressure (altimeter): 30.06 inches Hg (1018.0 mb)
Winds: from the W (260 degrees) at 8 MPH (7 knots; 3.6 m/s)
Visibility: 6 or more miles (10+ km)
Ceiling: 4800 feet AGL
Clouds: broken clouds at 4800 feet AGL
Weather: no significant weather observed at this time

METAR text: NZCH 240000Z AUTO 26007KT 9999 NCD 11/04 Q1018 NOSIG
Conditions at: NZCH (CHRISTCHURCH INT, NZ) observed 0000 UTC 24 June 2019
Temperature: 11.0°C (52°F)
Dewpoint: 4.0°C (39°F) [RH = 62%]
Pressure (altimeter): 30.06 inches Hg (1018.0 mb)
Winds: from the W (260 degrees) at 8 MPH (7 knots; 3.6 m/s)
Visibility: 6 or more miles (10+ km)
Ceiling: at least 12,000 feet AGL
Clouds: sky clear below 12,000 feet AGL
Weather: no significant weather observed at this time

METAR text: NZCH 232330Z AUTO 27005KT 9999 NCD 11/04 Q1017 NOSIG
Conditions at: NZCH (CHRISTCHURCH INT, NZ) observed 2330 UTC 23 June 2019
Temperature: 11.0°C (52°F)
Dewpoint: 4.0°C (39°F) [RH = 62%]
Pressure (altimeter): 30.03 inches Hg (1017.0 mb)
Winds: from the W (270 degrees) at 6 MPH (5 knots; 2.6 m/s)
Visibility: 6 or more miles (10+ km)
Ceiling: at least 12,000 feet AGL
Clouds: sky clear below 12,000 feet AGL
Weather: no significant weather observed at this time

METAR text: NZCH 232300Z AUTO 30004KT 260V320 9999 NCD 10/04 Q1017 NOSIG
Conditions at: NZCH (CHRISTCHURCH INT, NZ) observed 2300 UTC 23 June 2019
Temperature: 10.0°C (50°F)
Dewpoint: 4.0°C (39°F) [RH = 66%]
Pressure (altimeter): 30.03 inches Hg (1017.0 mb)
Winds: from the WNW (300 degrees) at 5 MPH (4 knots; 2.1 m/s)
Visibility: 6 or more miles (10+ km)
Ceiling: at least 12,000 feet AGL
Clouds: sky clear below 12,000 feet AGL
Weather: no significant weather observed at this time

METAR text: NZCH 232230Z AUTO 28004KT 240V320 9999 NCD 09/03 Q1017 NOSIG
Conditions at: NZCH (CHRISTCHURCH INT, NZ) observed 2230 UTC 23 June 2019
Temperature: 9.0°C (48°F)
Dewpoint: 3.0°C (37°F) [RH = 66%]
Pressure (altimeter): 30.03 inches Hg (1017.0 mb)
Winds: from the W (280 degrees) at 5 MPH (4 knots; 2.1 m/s)
Visibility: 6 or more miles (10+ km)
Ceiling: at least 12,000 feet AGL
Clouds: sky clear below 12,000 feet AGL
Weather: no significant weather observed at this time

METAR text: NZCH 232200Z AUTO 27006KT 240V300 9999 NCD 07/03 Q1017 NOSIG
Conditions at: NZCH (CHRISTCHURCH INT, NZ) observed 2200 UTC 23 June 2019
Temperature: 7.0°C (45°F)
Dewpoint: 3.0°C (37°F) [RH = 76%]
Pressure (altimeter): 30.03 inches Hg (1017.0 mb)
Winds: from the W (270 degrees) at 7 MPH (6 knots; 3.1 m/s)
Visibility: 6 or more miles (10+ km)
Ceiling: at least 12,000 feet AGL
Clouds: sky clear below 12,000 feet AGL
Weather: no significant weather observed at this time

METAR text: NZCH 232130Z AUTO 28009KT 9999 NCD 06/02 Q1016 NOSIG
Conditions at: NZCH (CHRISTCHURCH INT, NZ) observed 2130 UTC 23 June 2019
Temperature: 6.0°C (43°F)
Dewpoint: 2.0°C (36°F) [RH = 75%]
Pressure (altimeter): 30.00 inches Hg (1016.0 mb)
Winds: from the W (280 degrees) at 10 MPH (9 knots; 4.6 m/s)
Visibility: 6 or more miles (10+ km)
Ceiling: at least 12,000 feet AGL
Clouds: sky clear below 12,000 feet AGL
Weather: no significant weather observed at this time

METAR text: NZCH 232100Z AUTO 29007KT 9999 FEW037/// 06/02 Q1016 NOSIG
Conditions at: NZCH (CHRISTCHURCH INT, NZ) observed 2100 UTC 23 June 2019
Temperature: 6.0°C (43°F)
Dewpoint: 2.0°C (36°F) [RH = 75%]
Pressure (altimeter): 30.00 inches Hg (1016.0 mb)
Winds: from the WNW (290 degrees) at 8 MPH (7 knots; 3.6 m/s)
Visibility: 6 or more miles (10+ km)
Ceiling: at least 12,000 feet AGL
Clouds: few clouds at 3700 feet AGL
Weather: no significant weather observed at this time

METAR text: NZCH 232030Z AUTO 29007KT 260V320 9999 OVC038/// 06/02 Q1016 NOSIG
Conditions at: NZCH (CHRISTCHURCH INT, NZ) observed 2030 UTC 23 June 2019
Temperature: 6.0°C (43°F)
Dewpoint: 2.0°C (36°F) [RH = 75%]
Pressure (altimeter): 30.00 inches Hg (1016.0 mb)
Winds: from the WNW (290 degrees) at 8 MPH (7 knots; 3.6 m/s)
Visibility: 6 or more miles (10+ km)
Ceiling: 3800 feet AGL
Clouds: overcast cloud deck at 3800 feet AGL
Weather: no significant weather observed at this time

METAR text: NZCH 232000Z AUTO 28008KT 250V320 9999 OVC035/// 06/03 Q1015 NOSIG
Conditions at: NZCH (CHRISTCHURCH INT, NZ) observed 2000 UTC 23 June 2019
Temperature: 6.0°C (43°F)
Dewpoint: 3.0°C (37°F) [RH = 81%]
Pressure (altimeter): 29.97 inches Hg (1015.0 mb)
Winds: from the W (280 degrees) at 9 MPH (8 knots; 4.1 m/s)
Visibility: 6 or more miles (10+ km)
Ceiling: 3500 feet AGL
Clouds: overcast cloud deck at 3500 feet AGL
Weather: no significant weather observed at this time

METAR text: NZCH 231930Z AUTO 28007KT 9999 OVC034/// 05/03 Q1015 NOSIG
Conditions at: NZCH (CHRISTCHURCH INT, NZ) observed 1930 UTC 23 June 2019
Temperature: 5.0°C (41°F)
Dewpoint: 3.0°C (37°F) [RH = 87%]
Pressure (altimeter): 29.97 inches Hg (1015.0 mb)
Winds: from the W (280 degrees) at 8 MPH (7 knots; 3.6 m/s)
Visibility: 6 or more miles (10+ km)
Ceiling: 3400 feet AGL
Clouds: overcast cloud deck at 3400 feet AGL
Weather: no significant weather observed at this time

METAR text: NZCH 231900Z AUTO 27007KT 9999 OVC032/// 05/03 Q1015 NOSIG
Conditions at: NZCH (CHRISTCHURCH INT, NZ) observed 1900 UTC 23 June 2019
Temperature: 5.0°C (41°F)
Dewpoint: 3.0°C (37°F) [RH = 87%]
Pressure (altimeter): 29.97 inches Hg (1015.0 mb)
Winds: from the W (270 degrees) at 8 MPH (7 knots; 3.6 m/s)
Visibility: 6 or more miles (10+ km)
Ceiling: 3200 feet AGL
Clouds: overcast cloud deck at 3200 feet AGL
Weather: no significant weather observed at this time

METAR text: NZCH 231830Z AUTO 27007KT 9999 SCT033/// 04/03 Q1014 NOSIG
Conditions at: NZCH (CHRISTCHURCH INT, NZ) observed 1830 UTC 23 June 2019
Temperature: 4.0°C (39°F)
Dewpoint: 3.0°C (37°F) [RH = 93%]
Pressure (altimeter): 29.94 inches Hg (1014.0 mb)
Winds: from the W (270 degrees) at 8 MPH (7 knots; 3.6 m/s)
Visibility: 6 or more miles (10+ km)
Ceiling: at least 12,000 feet AGL
Clouds: scattered clouds at 3300 feet AGL
Weather: no significant weather observed at this time

METAR text: NZCH 231800Z AUTO 26003KT 9999 NCD 03/02 Q1014 NOSIG
Conditions at: NZCH (CHRISTCHURCH INT, NZ) observed 1800 UTC 23 June 2019
Temperature: 3.0°C (37°F)
Dewpoint: 2.0°C (36°F) [RH = 93%]
Pressure (altimeter): 29.94 inches Hg (1014.0 mb)
Winds: from the W (260 degrees) at 3 MPH (3 knots; 1.5 m/s)
Visibility: 6 or more miles (10+ km)
Ceiling: at least 12,000 feet AGL
Clouds: sky clear below 12,000 feet AGL
Weather: no significant weather observed at this time

METAR text: NZCH 231730Z AUTO 24003KT 9999 FEW046/// 05/03 Q1014 NOSIG
Conditions at: NZCH (CHRISTCHURCH INT, NZ) observed 1730 UTC 23 June 2019
Temperature: 5.0°C (41°F)
Dewpoint: 3.0°C (37°F) [RH = 87%]
Pressure (altimeter): 29.94 inches Hg (1014.0 mb)
Winds: from the WSW (240 degrees) at 3 MPH (3 knots; 1.5 m/s)
Visibility: 6 or more miles (10+ km)
Ceiling: at least 12,000 feet AGL
Clouds: few clouds at 4600 feet AGL
Weather: no significant weather observed at this time

METAR text: NZCH 231700Z AUTO 21003KT 9999 FEW026/// SCT046/// 04/03 Q1013 NOSIG
Conditions at: NZCH (CHRISTCHURCH INT, NZ) observed 1700 UTC 23 June 2019
Temperature: 4.0°C (39°F)
Dewpoint: 3.0°C (37°F) [RH = 93%]
Pressure (altimeter): 29.91 inches Hg (1013.0 mb)
Winds: from the SSW (210 degrees) at 3 MPH (3 knots; 1.5 m/s)
Visibility: 6 or more miles (10+ km)
Ceiling: at least 12,000 feet AGL
Clouds: few clouds at 2600 feet AGL
scattered clouds at 4600 feet AGL
Weather: no significant weather observed at this time

METAR text: NZCH 231630Z AUTO 27003KT 9999 BKN025/// BKN031/// OVC042/// 06/05 Q1013 NOSIG
Conditions at: NZCH (CHRISTCHURCH INT, NZ) observed 1630 UTC 23 June 2019
Temperature: 6.0°C (43°F)
Dewpoint: 5.0°C (41°F) [RH = 93%]
Pressure (altimeter): 29.91 inches Hg (1013.0 mb)
Winds: from the W (270 degrees) at 3 MPH (3 knots; 1.5 m/s)
Visibility: 6 or more miles (10+ km)
Ceiling: 2500 feet AGL
Clouds: broken clouds at 2500 feet AGL
broken clouds at 3100 feet AGL
overcast cloud deck at 4200 feet AGL
Weather: no significant weather observed at this time

METAR text: NZCH 231600Z AUTO 20002KT 9999 SCT015/// BKN020/// 05/05 Q1013 NOSIG
Conditions at: NZCH (CHRISTCHURCH INT, NZ) observed 1600 UTC 23 June 2019
Temperature: 5.0°C (41°F)
Dewpoint: 5.0°C (41°F) [RH = 100%]
Pressure (altimeter): 29.91 inches Hg (1013.0 mb)
Winds: from the SSW (200 degrees) at 2 MPH (2 knots; 1.0 m/s)
Visibility: 6 or more miles (10+ km)
Ceiling: 2000 feet AGL
Clouds: scattered clouds at 1500 feet AGL
broken clouds at 2000 feet AGL
Weather: no significant weather observed at this time

METAR text: NZCH 231530Z AUTO 26003KT 9999 BKN040/// 06/05 Q1013 NOSIG
Conditions at: NZCH (CHRISTCHURCH INT, NZ) observed 1530 UTC 23 June 2019
Temperature: 6.0°C (43°F)
Dewpoint: 5.0°C (41°F) [RH = 93%]
Pressure (altimeter): 29.91 inches Hg (1013.0 mb)
Winds: from the W (260 degrees) at 3 MPH (3 knots; 1.5 m/s)
Visibility: 6 or more miles (10+ km)
Ceiling: 4000 feet AGL
Clouds: broken clouds at 4000 feet AGL
Weather: no significant weather observed at this time

METAR text: NZCH 231500Z AUTO 21001KT 9999 OVC038/// 05/04 Q1013 NOSIG
Conditions at: NZCH (CHRISTCHURCH INT, NZ) observed 1500 UTC 23 June 2019
Temperature: 5.0°C (41°F)
Dewpoint: 4.0°C (39°F) [RH = 93%]
Pressure (altimeter): 29.91 inches Hg (1013.0 mb)
Winds: from the SSW (210 degrees) at 1 MPH (1 knots; 0.5 m/s)
Visibility: 6 or more miles (10+ km)
Ceiling: 3800 feet AGL
Clouds: overcast cloud deck at 3800 feet AGL
Weather: no significant weather observed at this time

METAR text: NZCH 231430Z AUTO 27003KT 9999 OVC042/// 05/04 Q1013 NOSIG
Conditions at: NZCH (CHRISTCHURCH INT, NZ) observed 1430 UTC 23 June 2019
Temperature: 5.0°C (41°F)
Dewpoint: 4.0°C (39°F) [RH = 93%]
Pressure (altimeter): 29.91 inches Hg (1013.0 mb)
Winds: from the W (270 degrees) at 3 MPH (3 knots; 1.5 m/s)
Visibility: 6 or more miles (10+ km)
Ceiling: 4200 feet AGL
Clouds: overcast cloud deck at 4200 feet AGL
Weather: no significant weather observed at this time

METAR text: NZCH 231400Z AUTO 27003KT 9999 OVC036/// 04/04 Q1013 NOSIG
Conditions at: NZCH (CHRISTCHURCH INT, NZ) observed 1400 UTC 23 June 2019
Temperature: 4.0°C (39°F)
Dewpoint: 4.0°C (39°F) [RH = 100%]
Pressure (altimeter): 29.91 inches Hg (1013.0 mb)
Winds: from the W (270 degrees) at 3 MPH (3 knots; 1.5 m/s)
Visibility: 6 or more miles (10+ km)
Ceiling: 3600 feet AGL
Clouds: overcast cloud deck at 3600 feet AGL
Weather: no significant weather observed at this time

METAR text: NZCH 231330Z AUTO 26005KT 9999 FEW021/// BKN034/// 04/04 Q1013 NOSIG
Conditions at: NZCH (CHRISTCHURCH INT, NZ) observed 1330 UTC 23 June 2019
Temperature: 4.0°C (39°F)
Dewpoint: 4.0°C (39°F) [RH = 100%]
Pressure (altimeter): 29.91 inches Hg (1013.0 mb)
Winds: from the W (260 degrees) at 6 MPH (5 knots; 2.6 m/s)
Visibility: 6 or more miles (10+ km)
Ceiling: 3400 feet AGL
Clouds: few clouds at 2100 feet AGL
broken clouds at 3400 feet AGL
Weather: no significant weather observed at this time

METAR text: NZCH 231300Z AUTO 25005KT 9999 FEW022/// OVC031/// 04/04 Q1013 NOSIG
Conditions at: NZCH (CHRISTCHURCH INT, NZ) observed 1300 UTC 23 June 2019
Temperature: 4.0°C (39°F)
Dewpoint: 4.0°C (39°F) [RH = 100%]
Pressure (altimeter): 29.91 inches Hg (1013.0 mb)
Winds: from the WSW (250 degrees) at 6 MPH (5 knots; 2.6 m/s)
Visibility: 6 or more miles (10+ km)
Ceiling: 3100 feet AGL
Clouds: few clouds at 2200 feet AGL
overcast cloud deck at 3100 feet AGL
Weather: no significant weather observed at this time

METAR text: NZCH 231230Z AUTO 25006KT 9999 FEW021/// OVC029/// 04/04 Q1013 NOSIG
Conditions at: NZCH (CHRISTCHURCH INT, NZ) observed 1230 UTC 23 June 2019
Temperature: 4.0°C (39°F)
Dewpoint: 4.0°C (39°F) [RH = 100%]
Pressure (altimeter): 29.91 inches Hg (1013.0 mb)
Winds: from the WSW (250 degrees) at 7 MPH (6 knots; 3.1 m/s)
Visibility: 6 or more miles (10+ km)
Ceiling: 2900 feet AGL
Clouds: few clouds at 2100 feet AGL
overcast cloud deck at 2900 feet AGL
Weather: no significant weather observed at this time

METAR text: NZCH 231200Z AUTO 22003KT 9999 BKN020/// OVC028/// 03/03 Q1013 NOSIG
Conditions at: NZCH (CHRISTCHURCH INT, NZ) observed 1200 UTC 23 June 2019
Temperature: 3.0°C (37°F)
Dewpoint: 3.0°C (37°F) [RH = 100%]
Pressure (altimeter): 29.91 inches Hg (1013.0 mb)
Winds: from the SW (220 degrees) at 3 MPH (3 knots; 1.5 m/s)
Visibility: 6 or more miles (10+ km)
Ceiling: 2000 feet AGL
Clouds: broken clouds at 2000 feet AGL
overcast cloud deck at 2800 feet AGL
Weather: no significant weather observed at this time

METAR text: NZCH 231130Z AUTO 23003KT 7000 OVC019/// 03/03 Q1012 NOSIG
Conditions at: NZCH (CHRISTCHURCH INT, NZ) observed 1130 UTC 23 June 2019
Temperature: 3.0°C (37°F)
Dewpoint: 3.0°C (37°F) [RH = 100%]
Pressure (altimeter): 29.88 inches Hg (1012.0 mb)
Winds: from the SW (230 degrees) at 3 MPH (3 knots; 1.5 m/s)
Visibility: 4 miles ( 7 km)
Ceiling: 1900 feet AGL
Clouds: overcast cloud deck at 1900 feet AGL
Weather: no significant weather observed at this time

METAR text: NZCH 231100Z AUTO 24005KT 3400 BR BKN018/// 02/02 Q1012 BECMG FM1200 9999 NSW BKN004
Conditions at: NZCH (CHRISTCHURCH INT, NZ) observed 1100 UTC 23 June 2019
Temperature: 2.0°C (36°F)
Dewpoint: 2.0°C (36°F) [RH = 100%]
Pressure (altimeter): 29.88 inches Hg (1012.0 mb)
Winds: from the WSW (240 degrees) at 6 MPH (5 knots; 2.6 m/s)
Visibility: 2.11 miles (3.40 km)
Ceiling: 1800 feet AGL
Clouds: broken clouds at 1800 feet AGL
Weather: BR  (mist)

METAR text: NZCH 231030Z AUTO 26005KT 1400 R02/1300N R20/P2000N BCFG VV004 01/01 Q1012 NOSIG
Conditions at: NZCH (CHRISTCHURCH INT, NZ) observed 1030 UTC 23 June 2019
Temperature: 1.0°C (34°F)
Dewpoint: 1.0°C (34°F) [RH = 100%]
Pressure (altimeter): 29.88 inches Hg (1012.0 mb)
Winds: from the W (260 degrees) at 6 MPH (5 knots; 2.6 m/s)
Visibility: 0.87 miles (1.40 km)
Ceiling: indefinite ceiling with vertical visibility of 400 feet AGL
Clouds: obscured sky
Weather: BCFG  (patches of fog)

METAR text: NZCH 231000Z AUTO 25003KT 0150 R02/1500U R20/P2000U FZFG VV004 M01/M01 Q1011 NOSIG
Conditions at: NZCH (CHRISTCHURCH INT, NZ) observed 1000 UTC 23 June 2019
Temperature: -1.0°C (30°F)
Dewpoint: -1.0°C (30°F) [RH = 100%]
Pressure (altimeter): 29.85 inches Hg (1011.0 mb)
Winds: from the WSW (250 degrees) at 3 MPH (3 knots; 1.5 m/s)
Visibility: 0.09 miles (0.14 km)
Ceiling: indefinite ceiling with vertical visibility of 400 feet AGL
Clouds: obscured sky
Weather: FZFG  (freezing fog)

METAR text: NZCH 230930Z AUTO 25003KT 0150 R02/1400D R20/0650U FZFG VV004 M02/M02 Q1011 NOSIG
Conditions at: NZCH (CHRISTCHURCH INT, NZ) observed 0930 UTC 23 June 2019
Temperature: -2.0°C (28°F)
Dewpoint: -2.0°C (28°F) [RH = 100%]
Pressure (altimeter): 29.85 inches Hg (1011.0 mb)
Winds: from the WSW (250 degrees) at 3 MPH (3 knots; 1.5 m/s)
Visibility: 0.09 miles (0.14 km)
Ceiling: indefinite ceiling with vertical visibility of 400 feet AGL
Clouds: obscured sky
Weather: FZFG  (freezing fog)

METAR text: NZCH 230900Z AUTO 26003KT 1000 R02/1100D R20/P2000N BCFG VV004 00/00 Q1011 NOSIG
Conditions at: NZCH (CHRISTCHURCH INT, NZ) observed 0900 UTC 23 June 2019
Temperature: 0.0°C (32°F)
Dewpoint: 0.0°C (32°F) [RH = 100%]
Pressure (altimeter): 29.85 inches Hg (1011.0 mb)
Winds: from the W (260 degrees) at 3 MPH (3 knots; 1.5 m/s)
Visibility: 0.62 miles (1.00 km)
Ceiling: indefinite ceiling with vertical visibility of 400 feet AGL
Clouds: obscured sky
Weather: BCFG  (patches of fog)

METAR text: NZCH 230830Z AUTO 25003KT 0300 R02/0800U R20/P2000U FG VV003 01/01 Q1011 NOSIG
Conditions at: NZCH (CHRISTCHURCH INT, NZ) observed 0830 UTC 23 June 2019
Temperature: 1.0°C (34°F)
Dewpoint: 1.0°C (34°F) [RH = 100%]
Pressure (altimeter): 29.85 inches Hg (1011.0 mb)
Winds: from the WSW (250 degrees) at 3 MPH (3 knots; 1.5 m/s)
Visibility: 0.19 miles (0.31 km)
Ceiling: indefinite ceiling with vertical visibility of 300 feet AGL
Clouds: obscured sky
Weather: FG  (fog)

METAR text: NZCH 230800Z AUTO 24003KT 2500 BCFG FEW004/// M01/M01 Q1011 NOSIG
Conditions at: NZCH (CHRISTCHURCH INT, NZ) observed 0800 UTC 23 June 2019
Temperature: -1.0°C (30°F)
Dewpoint: -1.0°C (30°F) [RH = 100%]
Pressure (altimeter): 29.85 inches Hg (1011.0 mb)
Winds: from the WSW (240 degrees) at 3 MPH (3 knots; 1.5 m/s)
Visibility: 1.55 miles (2.49 km)
Ceiling: at least 12,000 feet AGL
Clouds: few clouds at 400 feet AGL
Weather: BCFG  (patches of fog)

METAR text: NZCH 230730Z AUTO 23003KT 0600 R02/0900D R20/P2000N FG VV004 00/00 Q1011 NOSIG
Conditions at: NZCH (CHRISTCHURCH INT, NZ) observed 0730 UTC 23 June 2019
Temperature: 0.0°C (32°F)
Dewpoint: 0.0°C (32°F) [RH = 100%]
Pressure (altimeter): 29.85 inches Hg (1011.0 mb)
Winds: from the SW (230 degrees) at 3 MPH (3 knots; 1.5 m/s)
Visibility: 0.37 miles (0.60 km)
Ceiling: indefinite ceiling with vertical visibility of 400 feet AGL
Clouds: obscured sky
Weather: FG  (fog)

METAR text: NZCH 230700Z AUTO 24002KT 0550 R02/1500D R20/P2000N FG NCD 01/01 Q1011 NOSIG
Conditions at: NZCH (CHRISTCHURCH INT, NZ) observed 0700 UTC 23 June 2019
Temperature: 1.0°C (34°F)
Dewpoint: 1.0°C (34°F) [RH = 100%]
Pressure (altimeter): 29.85 inches Hg (1011.0 mb)
Winds: from the WSW (240 degrees) at 2 MPH (2 knots; 1.0 m/s)
Visibility: 0.34 miles (0.55 km)
Ceiling: at least 12,000 feet AGL
Clouds: sky clear below 12,000 feet AGL
Weather: FG  (fog)

METAR text: NZCH 230630Z AUTO 26001KT 1400 R20/P2000N BCFG NCD 02/02 Q1011 NOSIG
Conditions at: NZCH (CHRISTCHURCH INT, NZ) observed 0630 UTC 23 June 2019
Temperature: 2.0°C (36°F)
Dewpoint: 2.0°C (36°F) [RH = 100%]
Pressure (altimeter): 29.85 inches Hg (1011.0 mb)
Winds: from the W (260 degrees) at 1 MPH (1 knots; 0.5 m/s)
Visibility: 0.87 miles (1.40 km)
Ceiling: at least 12,000 feet AGL
Clouds: sky clear below 12,000 feet AGL
Weather: BCFG  (patches of fog)

METAR text: NZCH 230600Z AUTO 03001KT 9000 NCD 05/04 Q1010 NOSIG
Conditions at: NZCH (CHRISTCHURCH INT, NZ) observed 0600 UTC 23 June 2019
Temperature: 5.0°C (41°F)
Dewpoint: 4.0°C (39°F) [RH = 93%]
Pressure (altimeter): 29.82 inches Hg (1010.0 mb)
Winds: from the NNE (30 degrees) at 1 MPH (1 knots; 0.5 m/s)
Visibility: 6 miles ( 9 km)
Ceiling: at least 12,000 feet AGL
Clouds: sky clear below 12,000 feet AGL
Weather: no significant weather observed at this time

METAR text: NZCH 230530Z AUTO 06003KT 9999 NCD 05/04 Q1010 NOSIG
Conditions at: NZCH (CHRISTCHURCH INT, NZ) observed 0530 UTC 23 June 2019
Temperature: 5.0°C (41°F)
Dewpoint: 4.0°C (39°F) [RH = 93%]
Pressure (altimeter): 29.82 inches Hg (1010.0 mb)
Winds: from the ENE (60 degrees) at 3 MPH (3 knots; 1.5 m/s)
Visibility: 6 or more miles (10+ km)
Ceiling: at least 12,000 feet AGL
Clouds: sky clear below 12,000 feet AGL
Weather: no significant weather observed at this time

Forecast for: AMD
Text: TAF AMD NZCH 241229Z 2412/2512 25008KT 9999 BKN010
Forecast period: 1200 to 1300 UTC 24 June 2019
Forecast type: FROM: standard forecast or significant change
Winds: from the WSW (250 degrees) at 9 MPH (8 knots; 4.1 m/s)
Visibility: 6 or more miles 10+ km)
Ceiling: 1000 feet AGL
Clouds: broken clouds at 1000 feet AGL
Weather: no significant weather forecast for this period
Text: BECMG 2413/2415 FEW020 BKN060
Forecast period: 1300 to 2300 UTC 24 June 2019
Forecast type: BECOMING: Conditions expected to become as follows by 1500 UTC 24 June 2019
Winds: from the WSW (250 degrees) at 9 MPH (8 knots; 4.1 m/s)
Visibility: 6 or more miles 10+ km)
Ceiling: 6000 feet AGL
Clouds: few clouds at 2000 feet AGL
broken clouds at 6000 feet AGL
Weather: no significant weather forecast for this period
Text: FM242300 06010KT CAVOK
Forecast period: 2300 UTC 24 June 2019 to 1000 UTC 25 June 2019
Forecast type: FROM: standard forecast or significant change
Winds: from the ENE (60 degrees) at 12 MPH (10 knots; 5.1 m/s)
Visibility: 6 or more miles 10+ km)
Ceiling: unknown
Clouds: missing
Weather: NSW  (no significant weather)
Text: BECMG 2510/2512 VRB02KT
Forecast period: 1000 to 1200 UTC 25 June 2019
Forecast type: BECOMING: Conditions expected to become as follows by 1200 UTC 25 June 2019
Winds: variable direction winds at 2 MPH (2 knots; 1.0 m/s)
Visibility: 6 or more miles 10+ km)
Ceiling: unknown
Clouds: missing
Weather: NSW  (no significant weather)